Harpursville, New York
Current Conditions -  °F | °C
As of 9:53 PM on Tuesday 25 Nov 2014 (Local Time) from KBGM Reporting Station
Clear Clear  
Wind Chill: 31°   Ceiling: Unl
Heat Index: 38°   Visibility: 10mi
Dew Point: 24°   Wind: 9mph
Humidity: 57%   Direction: 290°WNW
Pressure: 30.1"   Gusts: NA
Location:  42.18°N, 75.62°W
Report Text: KBGM 260253Z 29008KT 10SM CLR 03/M04 A3010 RMK AO2 SLP203 T00331044 51026
Loading
Personal Weather Stations






























Interactive Weather Map New forecast layout! Learn more

10-Day Weather Forecast

Advertisements
Track Severe Weather on mobile